LZSPS LBLS-LRBS
Flight info
| Callsign | LZSPS |
|---|---|
| Flight time | 1h 24m |
| Altitude | 8000 |
| Route | LBLS DCT SOMOV DCT LRBS |
| Aircraft | C172/L-V/N |
Departure
| Time | 2026-04-26 11:12 |
|---|---|
| Airport | Lesnovo Airfield (LBLS) |
Arrival
| Time | 2026-04-26 12:36 |
|---|---|
| Airport | Bucharest Băneasa Aurel Vlaicu International Airport (LRBS) |
| Time | Latitude | Longitude | Altitude | Speed | Heading |
|---|---|---|---|---|---|
| 2026-04-26 11:03 | 42.63441 | 23.64694 | 1846 ft | 0 kts | 287° |
| 2026-04-26 11:06 | 42.63449 | 23.64651 | 1845 ft | 12 kts | 277° |
| 2026-04-26 11:06 | 42.63412 | 23.64588 | 1844 ft | 6 kts | 197° |
| 2026-04-26 11:07 | 42.63405 | 23.64585 | 1844 ft | 0 kts | 197° |
| 2026-04-26 11:07 | 42.63403 | 23.64585 | 1844 ft | 1 kts | 197° |
| 2026-04-26 11:07 | 42.63374 | 23.64572 | 1844 ft | 7 kts | 189° |
| 2026-04-26 11:07 | 42.63349 | 23.64637 | 1846 ft | 9 kts | 108° |
| 2026-04-26 11:08 | 42.63329 | 23.64733 | 1849 ft | 12 kts | 108° |
| 2026-04-26 11:08 | 42.63302 | 23.64869 | 1852 ft | 17 kts | 106° |
| 2026-04-26 11:08 | 42.63269 | 23.65035 | 1858 ft | 19 kts | 107° |
| 2026-04-26 11:08 | 42.63223 | 23.65215 | 1863 ft | 21 kts | 109° |
| 2026-04-26 11:09 | 42.63184 | 23.65399 | 1867 ft | 17 kts | 110° |
| 2026-04-26 11:09 | 42.63152 | 23.65525 | 1868 ft | 10 kts | 103° |
| 2026-04-26 11:09 | 42.63142 | 23.65581 | 1869 ft | 3 kts | 108° |
| 2026-04-26 11:09 | 42.63117 | 23.65658 | 1870 ft | 2 kts | 86° |
| 2026-04-26 11:10 | 42.63121 | 23.65665 | 1870 ft | 4 kts | 25° |
| 2026-04-26 11:10 | 42.63130 | 23.65658 | 1870 ft | 0 kts | 287° |
| 2026-04-26 11:10 | 42.63142 | 23.65602 | 1870 ft | 26 kts | 288° |
| 2026-04-26 11:11 | 42.63244 | 23.65130 | 1871 ft | 70 kts | 285° |
| 2026-04-26 11:11 | 42.63345 | 23.64446 | 1991 ft | 80 kts | 272° |
| 2026-04-26 11:11 | 42.63010 | 23.63903 | 2202 ft | 89 kts | 189° |
| 2026-04-26 11:11 | 42.62473 | 23.64260 | 2409 ft | 94 kts | 124° |
| 2026-04-26 11:12 | 42.62226 | 23.65093 | 2541 ft | 102 kts | 97° |
| 2026-04-26 11:12 | 42.62037 | 23.66014 | 2740 ft | 101 kts | 95° |
| 2026-04-26 11:12 | 42.61874 | 23.66951 | 2892 ft | 102 kts | 93° |
| 2026-04-26 11:12 | 42.61745 | 23.67868 | 3078 ft | 100 kts | 92° |
| 2026-04-26 11:13 | 42.61633 | 23.68781 | 3282 ft | 96 kts | 90° |
| 2026-04-26 11:13 | 42.61542 | 23.69697 | 3426 ft | 99 kts | 87° |
| 2026-04-26 11:13 | 42.61447 | 23.70614 | 3618 ft | 96 kts | 85° |
| 2026-04-26 11:13 | 42.61402 | 23.71531 | 3774 ft | 99 kts | 87° |
| 2026-04-26 11:14 | 42.61379 | 23.72438 | 3956 ft | 97 kts | 83° |
| 2026-04-26 11:14 | 42.61344 | 23.73380 | 4102 ft | 100 kts | 87° |
| 2026-04-26 11:14 | 42.61279 | 23.74307 | 4272 ft | 99 kts | 88° |
| 2026-04-26 11:14 | 42.61228 | 23.75237 | 4413 ft | 100 kts | 85° |
| 2026-04-26 11:15 | 42.61178 | 23.76187 | 4568 ft | 98 kts | 81° |
| 2026-04-26 11:15 | 42.61338 | 23.77078 | 4662 ft | 100 kts | 66° |
| 2026-04-26 11:15 | 42.61486 | 23.77977 | 4837 ft | 97 kts | 67° |
| 2026-04-26 11:15 | 42.61637 | 23.78899 | 4941 ft | 102 kts | 71° |
| 2026-04-26 11:16 | 42.61744 | 23.79855 | 5047 ft | 105 kts | 75° |
| 2026-04-26 11:16 | 42.61820 | 23.80866 | 5136 ft | 109 kts | 79° |
| 2026-04-26 11:16 | 42.61873 | 23.81883 | 5255 ft | 108 kts | 73° |
| 2026-04-26 11:16 | 42.62108 | 23.82858 | 5304 ft | 107 kts | 55° |
| 2026-04-26 11:17 | 42.62492 | 23.83686 | 5407 ft | 102 kts | 46° |
| 2026-04-26 11:17 | 42.62944 | 23.84425 | 5497 ft | 100 kts | 38° |
| 2026-04-26 11:17 | 42.63471 | 23.85046 | 5593 ft | 100 kts | 33° |
| 2026-04-26 11:17 | 42.64006 | 23.85634 | 5696 ft | 98 kts | 31° |
| 2026-04-26 11:18 | 42.64534 | 23.86225 | 5788 ft | 100 kts | 33° |
| 2026-04-26 11:18 | 42.65062 | 23.86862 | 5860 ft | 102 kts | 34° |
| 2026-04-26 11:18 | 42.65596 | 23.87492 | 5963 ft | 100 kts | 33° |
| 2026-04-26 11:18 | 42.66108 | 23.88144 | 6046 ft | 102 kts | 37° |
| 2026-04-26 11:19 | 42.66604 | 23.88796 | 6164 ft | 98 kts | 35° |
| 2026-04-26 11:19 | 42.67104 | 23.89457 | 6257 ft | 99 kts | 38° |
| 2026-04-26 11:19 | 42.67582 | 23.90110 | 6362 ft | 98 kts | 36° |
| 2026-04-26 11:19 | 42.68081 | 23.90768 | 6441 ft | 101 kts | 38° |
| 2026-04-26 11:20 | 42.68595 | 23.91428 | 6527 ft | 100 kts | 34° |
| 2026-04-26 11:20 | 42.68937 | 23.91862 | 6585 ft | 101 kts | 34° |
| 2026-04-26 11:20 | 42.69613 | 23.92742 | 6701 ft | 102 kts | 35° |
| 2026-04-26 11:20 | 42.70132 | 23.93412 | 6777 ft | 103 kts | 35° |
| 2026-04-26 11:21 | 42.70642 | 23.94083 | 6859 ft | 102 kts | 35° |
| 2026-04-26 11:21 | 42.71192 | 23.94722 | 6925 ft | 103 kts | 31° |
| 2026-04-26 11:21 | 42.71738 | 23.95338 | 7013 ft | 102 kts | 33° |
| 2026-04-26 11:21 | 42.72280 | 23.95959 | 7092 ft | 102 kts | 33° |
| 2026-04-26 11:22 | 42.72813 | 23.96596 | 7192 ft | 101 kts | 33° |
| 2026-04-26 11:22 | 42.73338 | 23.97229 | 7291 ft | 100 kts | 33° |
| 2026-04-26 11:22 | 42.73855 | 23.97853 | 7388 ft | 99 kts | 33° |
| 2026-04-26 11:22 | 42.74374 | 23.98473 | 7481 ft | 99 kts | 33° |
| 2026-04-26 11:23 | 42.74891 | 23.99089 | 7595 ft | 98 kts | 32° |
| 2026-04-26 11:23 | 42.75400 | 23.99701 | 7715 ft | 98 kts | 32° |
| 2026-04-26 11:23 | 42.75913 | 24.00323 | 7813 ft | 98 kts | 32° |
| 2026-04-26 11:23 | 42.76425 | 24.00944 | 7881 ft | 100 kts | 33° |
| 2026-04-26 11:24 | 42.76952 | 24.01578 | 7929 ft | 102 kts | 33° |
| 2026-04-26 11:24 | 42.77498 | 24.02229 | 7953 ft | 106 kts | 32° |
| 2026-04-26 11:24 | 42.78058 | 24.02899 | 7978 ft | 108 kts | 32° |
| 2026-04-26 11:24 | 42.78628 | 24.03587 | 7997 ft | 110 kts | 32° |
| 2026-04-26 11:25 | 42.79211 | 24.04284 | 7995 ft | 112 kts | 32° |
| 2026-04-26 11:25 | 42.79806 | 24.04995 | 7992 ft | 114 kts | 32° |
| 2026-04-26 11:25 | 42.80402 | 24.05710 | 7990 ft | 114 kts | 33° |
| 2026-04-26 11:25 | 42.81005 | 24.06424 | 7990 ft | 114 kts | 32° |
| 2026-04-26 11:26 | 42.81611 | 24.07142 | 7990 ft | 115 kts | 32° |
| 2026-04-26 11:26 | 42.82217 | 24.07859 | 7990 ft | 115 kts | 32° |
| 2026-04-26 11:26 | 42.82814 | 24.08557 | 7993 ft | 114 kts | 32° |
| 2026-04-26 11:26 | 42.83420 | 24.09266 | 7991 ft | 115 kts | 32° |
| 2026-04-26 11:27 | 42.84032 | 24.09980 | 7989 ft | 115 kts | 32° |
| 2026-04-26 11:27 | 42.84638 | 24.10685 | 7989 ft | 114 kts | 32° |
| 2026-04-26 11:27 | 42.85244 | 24.11388 | 7991 ft | 114 kts | 32° |
| 2026-04-26 11:27 | 42.85854 | 24.12102 | 7988 ft | 114 kts | 32° |
| 2026-04-26 11:28 | 42.86449 | 24.12799 | 7985 ft | 113 kts | 32° |
| 2026-04-26 11:28 | 42.87039 | 24.13495 | 7982 ft | 112 kts | 32° |
| 2026-04-26 11:28 | 42.87627 | 24.14193 | 7984 ft | 112 kts | 32° |
| 2026-04-26 11:28 | 42.88222 | 24.14897 | 7981 ft | 111 kts | 32° |
| 2026-04-26 11:29 | 42.88809 | 24.15580 | 7987 ft | 111 kts | 31° |
| 2026-04-26 11:29 | 42.89396 | 24.16266 | 7986 ft | 112 kts | 31° |
| 2026-04-26 11:29 | 42.89995 | 24.16958 | 7980 ft | 112 kts | 30° |
| 2026-04-26 11:29 | 42.90595 | 24.17641 | 7978 ft | 112 kts | 30° |
| 2026-04-26 11:30 | 42.91189 | 24.18315 | 7976 ft | 112 kts | 30° |
| 2026-04-26 11:30 | 42.91590 | 24.18769 | 7976 ft | 112 kts | 30° |
| 2026-04-26 11:30 | 42.92392 | 24.19673 | 7977 ft | 112 kts | 30° |
| 2026-04-26 11:30 | 42.92974 | 24.20365 | 7977 ft | 113 kts | 34° |
| 2026-04-26 11:31 | 42.93548 | 24.21106 | 7976 ft | 113 kts | 33° |
| 2026-04-26 11:31 | 42.94126 | 24.21848 | 7974 ft | 113 kts | 33° |
| 2026-04-26 11:31 | 42.94702 | 24.22584 | 7973 ft | 113 kts | 33° |
| 2026-04-26 11:31 | 42.95278 | 24.23313 | 7973 ft | 113 kts | 33° |
| 2026-04-26 11:32 | 42.95856 | 24.24047 | 7972 ft | 113 kts | 33° |
| 2026-04-26 11:32 | 42.96439 | 24.24783 | 7974 ft | 113 kts | 32° |
| 2026-04-26 11:32 | 42.97016 | 24.25522 | 7968 ft | 114 kts | 33° |
| 2026-04-26 11:32 | 42.97595 | 24.26254 | 7968 ft | 113 kts | 33° |
| 2026-04-26 11:33 | 42.98176 | 24.26982 | 7967 ft | 113 kts | 32° |
| 2026-04-26 11:33 | 42.98769 | 24.27685 | 7965 ft | 112 kts | 31° |
| 2026-04-26 11:33 | 42.99361 | 24.28375 | 7967 ft | 112 kts | 30° |
| 2026-04-26 11:33 | 42.99962 | 24.29070 | 7965 ft | 112 kts | 30° |
| 2026-04-26 11:34 | 43.00558 | 24.29764 | 7964 ft | 112 kts | 31° |
| 2026-04-26 11:34 | 43.01151 | 24.30450 | 7965 ft | 112 kts | 30° |
| 2026-04-26 11:34 | 43.01757 | 24.31150 | 7964 ft | 112 kts | 30° |
| 2026-04-26 11:34 | 43.02354 | 24.31840 | 7965 ft | 113 kts | 30° |
| 2026-04-26 11:35 | 43.02955 | 24.32540 | 7958 ft | 114 kts | 30° |
| 2026-04-26 11:35 | 43.03562 | 24.33251 | 7955 ft | 114 kts | 30° |
| 2026-04-26 11:35 | 43.04165 | 24.33953 | 7954 ft | 113 kts | 30° |
| 2026-04-26 11:35 | 43.04767 | 24.34655 | 7966 ft | 112 kts | 30° |
| 2026-04-26 11:36 | 43.05360 | 24.35346 | 7987 ft | 111 kts | 30° |
| 2026-04-26 11:36 | 43.05944 | 24.36026 | 8006 ft | 111 kts | 29° |
| 2026-04-26 11:36 | 43.06538 | 24.36703 | 8027 ft | 110 kts | 28° |
| 2026-04-26 11:36 | 43.07129 | 24.37370 | 8048 ft | 110 kts | 28° |
| 2026-04-26 11:37 | 43.07722 | 24.38041 | 8065 ft | 111 kts | 28° |
| 2026-04-26 11:37 | 43.08326 | 24.38719 | 8058 ft | 112 kts | 28° |
| 2026-04-26 11:37 | 43.08935 | 24.39397 | 8059 ft | 112 kts | 27° |
| 2026-04-26 11:37 | 43.09551 | 24.40033 | 8059 ft | 112 kts | 25° |
| 2026-04-26 11:38 | 43.10180 | 24.40661 | 8069 ft | 111 kts | 25° |
| 2026-04-26 11:38 | 43.10806 | 24.41281 | 8071 ft | 111 kts | 25° |
| 2026-04-26 11:38 | 43.11443 | 24.41907 | 8073 ft | 111 kts | 25° |
| 2026-04-26 11:38 | 43.12078 | 24.42525 | 8077 ft | 111 kts | 25° |
| 2026-04-26 11:39 | 43.12709 | 24.43136 | 8077 ft | 112 kts | 25° |
| 2026-04-26 11:39 | 43.13348 | 24.43754 | 8073 ft | 113 kts | 25° |
| 2026-04-26 11:39 | 43.13991 | 24.44380 | 8070 ft | 113 kts | 25° |
| 2026-04-26 11:39 | 43.14640 | 24.45009 | 8067 ft | 113 kts | 24° |
| 2026-04-26 11:40 | 43.15282 | 24.45635 | 8064 ft | 114 kts | 24° |
| 2026-04-26 11:40 | 43.15926 | 24.46262 | 8057 ft | 114 kts | 24° |
| 2026-04-26 11:40 | 43.16577 | 24.46893 | 8057 ft | 114 kts | 24° |
| 2026-04-26 11:40 | 43.17225 | 24.47519 | 8056 ft | 114 kts | 24° |
| 2026-04-26 11:41 | 43.17876 | 24.48144 | 8056 ft | 114 kts | 24° |
| 2026-04-26 11:42 | 43.22424 | 24.52491 | 8050 ft | 113 kts | 23° |
| 2026-04-26 11:43 | 43.23071 | 24.53109 | 8051 ft | 113 kts | 23° |
| 2026-04-26 11:43 | 43.23724 | 24.53731 | 8050 ft | 113 kts | 24° |
| 2026-04-26 11:43 | 43.24372 | 24.54342 | 8049 ft | 113 kts | 23° |
| 2026-04-26 11:43 | 43.25025 | 24.54958 | 8046 ft | 114 kts | 23° |
| 2026-04-26 11:44 | 43.25674 | 24.55573 | 8045 ft | 114 kts | 23° |
| 2026-04-26 11:44 | 43.26333 | 24.56191 | 8045 ft | 113 kts | 23° |
| 2026-04-26 11:44 | 43.26988 | 24.56806 | 8043 ft | 114 kts | 23° |
| 2026-04-26 11:44 | 43.27640 | 24.57415 | 8043 ft | 113 kts | 23° |
| 2026-04-26 11:45 | 43.28294 | 24.58024 | 8046 ft | 113 kts | 23° |
| 2026-04-26 11:45 | 43.28945 | 24.58632 | 8045 ft | 114 kts | 23° |
| 2026-04-26 11:45 | 43.29607 | 24.59247 | 8043 ft | 113 kts | 23° |
| 2026-04-26 11:45 | 43.30262 | 24.59854 | 8044 ft | 113 kts | 22° |
| 2026-04-26 11:46 | 43.30916 | 24.60457 | 8045 ft | 113 kts | 22° |
| 2026-04-26 11:46 | 43.31577 | 24.61069 | 8043 ft | 113 kts | 22° |
| 2026-04-26 11:46 | 43.32230 | 24.61672 | 8040 ft | 114 kts | 22° |
| 2026-04-26 11:46 | 43.32891 | 24.62281 | 8044 ft | 113 kts | 22° |
| 2026-04-26 11:47 | 43.33547 | 24.62882 | 8043 ft | 114 kts | 22° |
| 2026-04-26 11:47 | 43.34211 | 24.63490 | 8035 ft | 115 kts | 22° |
| 2026-04-26 11:47 | 43.34881 | 24.64103 | 8030 ft | 115 kts | 22° |
| 2026-04-26 11:47 | 43.35547 | 24.64712 | 8029 ft | 114 kts | 22° |
| 2026-04-26 11:48 | 43.36205 | 24.65313 | 8026 ft | 114 kts | 23° |
| 2026-04-26 11:48 | 43.36878 | 24.65925 | 8027 ft | 114 kts | 22° |
| 2026-04-26 11:48 | 43.37533 | 24.66520 | 8029 ft | 113 kts | 22° |
| 2026-04-26 11:48 | 43.38199 | 24.67127 | 8028 ft | 113 kts | 22° |
| 2026-04-26 11:49 | 43.38857 | 24.67723 | 8029 ft | 113 kts | 22° |
| 2026-04-26 11:49 | 43.39519 | 24.68323 | 8029 ft | 113 kts | 22° |
| 2026-04-26 11:49 | 43.40180 | 24.68920 | 8029 ft | 113 kts | 22° |
| 2026-04-26 11:49 | 43.40835 | 24.69511 | 8031 ft | 113 kts | 22° |
| 2026-04-26 11:50 | 43.41504 | 24.70110 | 8028 ft | 114 kts | 22° |
| 2026-04-26 11:50 | 43.42161 | 24.70703 | 8025 ft | 114 kts | 22° |
| 2026-04-26 11:50 | 43.42836 | 24.71305 | 8025 ft | 114 kts | 22° |
| 2026-04-26 11:50 | 43.43500 | 24.71899 | 8023 ft | 114 kts | 22° |
| 2026-04-26 11:51 | 43.44175 | 24.72449 | 8019 ft | 112 kts | 17° |
| 2026-04-26 11:51 | 43.44870 | 24.72939 | 8017 ft | 112 kts | 16° |
| 2026-04-26 11:51 | 43.45568 | 24.73420 | 8017 ft | 112 kts | 15° |
| 2026-04-26 11:51 | 43.46273 | 24.73902 | 8016 ft | 111 kts | 14° |
| 2026-04-26 11:52 | 43.46977 | 24.74312 | 8015 ft | 110 kts | 11° |
| 2026-04-26 11:52 | 43.47695 | 24.74696 | 8013 ft | 110 kts | 11° |
| 2026-04-26 11:52 | 43.48410 | 24.75078 | 8015 ft | 109 kts | 11° |
| 2026-04-26 11:52 | 43.49130 | 24.75458 | 8016 ft | 109 kts | 10° |
| 2026-04-26 11:53 | 43.49837 | 24.75833 | 8018 ft | 109 kts | 10° |
| 2026-04-26 11:53 | 43.50544 | 24.76208 | 8023 ft | 108 kts | 10° |
| 2026-04-26 11:53 | 43.51249 | 24.76577 | 8026 ft | 108 kts | 10° |
| 2026-04-26 11:54 | 43.52665 | 24.77315 | 8025 ft | 109 kts | 10° |
| 2026-04-26 11:54 | 43.53373 | 24.77681 | 8022 ft | 109 kts | 10° |
| 2026-04-26 11:54 | 43.54087 | 24.78048 | 8023 ft | 109 kts | 10° |
| 2026-04-26 11:54 | 43.54798 | 24.78415 | 8019 ft | 109 kts | 10° |
| 2026-04-26 11:55 | 43.55517 | 24.78781 | 8012 ft | 110 kts | 9° |
| 2026-04-26 11:55 | 43.56237 | 24.79150 | 8009 ft | 110 kts | 10° |
| 2026-04-26 11:55 | 43.56950 | 24.79516 | 8006 ft | 110 kts | 9° |
| 2026-04-26 11:55 | 43.57668 | 24.79885 | 8002 ft | 110 kts | 9° |
| 2026-04-26 11:56 | 43.58387 | 24.80252 | 8001 ft | 110 kts | 9° |
| 2026-04-26 11:56 | 43.59110 | 24.80619 | 7997 ft | 110 kts | 9° |
| 2026-04-26 11:56 | 43.59828 | 24.80983 | 7992 ft | 110 kts | 9° |
| 2026-04-26 11:56 | 43.60547 | 24.81347 | 7993 ft | 109 kts | 9° |
| 2026-04-26 11:57 | 43.61266 | 24.81711 | 7996 ft | 109 kts | 9° |
| 2026-04-26 11:57 | 43.61981 | 24.82071 | 7995 ft | 109 kts | 9° |
| 2026-04-26 11:57 | 43.62701 | 24.82429 | 7996 ft | 109 kts | 8° |
| 2026-04-26 11:57 | 43.63420 | 24.82766 | 7994 ft | 109 kts | 8° |
| 2026-04-26 11:58 | 43.64138 | 24.83101 | 7993 ft | 109 kts | 8° |
| 2026-04-26 11:58 | 43.64867 | 24.83439 | 7995 ft | 109 kts | 8° |
| 2026-04-26 11:58 | 43.65582 | 24.83772 | 7994 ft | 109 kts | 8° |
| 2026-04-26 11:58 | 43.66306 | 24.84108 | 7994 ft | 109 kts | 8° |
| 2026-04-26 11:59 | 43.67024 | 24.84444 | 7996 ft | 108 kts | 8° |
| 2026-04-26 11:59 | 43.67739 | 24.84775 | 8017 ft | 107 kts | 7° |
| 2026-04-26 11:59 | 43.68443 | 24.85086 | 8037 ft | 106 kts | 6° |
| 2026-04-26 11:59 | 43.69147 | 24.85393 | 8041 ft | 107 kts | 7° |
| 2026-04-26 12:00 | 43.69860 | 24.85699 | 8040 ft | 107 kts | 6° |
| 2026-04-26 12:00 | 43.70570 | 24.86072 | 8036 ft | 113 kts | 19° |
| 2026-04-26 12:00 | 43.71185 | 24.86803 | 8039 ft | 120 kts | 37° |
| 2026-04-26 12:00 | 43.71730 | 24.87701 | 8038 ft | 120 kts | 36° |
| 2026-04-26 12:01 | 43.72330 | 24.88458 | 8036 ft | 118 kts | 30° |
| 2026-04-26 12:01 | 43.72951 | 24.89227 | 8033 ft | 119 kts | 32° |
| 2026-04-26 12:01 | 43.73536 | 24.90053 | 8029 ft | 122 kts | 39° |
| 2026-04-26 12:01 | 43.74076 | 24.90962 | 8028 ft | 122 kts | 40° |
| 2026-04-26 12:02 | 43.74625 | 24.91875 | 8026 ft | 122 kts | 39° |
| 2026-04-26 12:02 | 43.75174 | 24.92764 | 8024 ft | 122 kts | 38° |
| 2026-04-26 12:02 | 43.75723 | 24.93640 | 8032 ft | 121 kts | 38° |
| 2026-04-26 12:02 | 43.76278 | 24.94511 | 8035 ft | 121 kts | 37° |
| 2026-04-26 12:03 | 43.76835 | 24.95377 | 8037 ft | 120 kts | 37° |
| 2026-04-26 12:03 | 43.77396 | 24.96245 | 8039 ft | 121 kts | 37° |
| 2026-04-26 12:03 | 43.77962 | 24.97114 | 8033 ft | 121 kts | 37° |
| 2026-04-26 12:03 | 43.78534 | 24.97991 | 8025 ft | 122 kts | 37° |
| 2026-04-26 12:04 | 43.79102 | 24.98862 | 8020 ft | 122 kts | 37° |
| 2026-04-26 12:04 | 43.79676 | 24.99741 | 8016 ft | 122 kts | 37° |
| 2026-04-26 12:04 | 43.80247 | 25.00613 | 8015 ft | 122 kts | 37° |
| 2026-04-26 12:04 | 43.80817 | 25.01485 | 8016 ft | 122 kts | 37° |
| 2026-04-26 12:05 | 43.81385 | 25.02352 | 8019 ft | 121 kts | 37° |
| 2026-04-26 12:05 | 43.81953 | 25.03218 | 8020 ft | 121 kts | 37° |
| 2026-04-26 12:05 | 43.82518 | 25.04081 | 8025 ft | 121 kts | 37° |
| 2026-04-26 12:05 | 43.83084 | 25.04944 | 8025 ft | 121 kts | 37° |
| 2026-04-26 12:06 | 43.83649 | 25.05805 | 8024 ft | 121 kts | 37° |
| 2026-04-26 12:06 | 43.84225 | 25.06684 | 8023 ft | 121 kts | 37° |
| 2026-04-26 12:06 | 43.84794 | 25.07554 | 8025 ft | 121 kts | 37° |
| 2026-04-26 12:06 | 43.85358 | 25.08414 | 8027 ft | 121 kts | 37° |
| 2026-04-26 12:07 | 43.85925 | 25.09280 | 8024 ft | 122 kts | 37° |
| 2026-04-26 12:07 | 43.86498 | 25.10157 | 8023 ft | 122 kts | 37° |
| 2026-04-26 12:07 | 43.87067 | 25.11027 | 8022 ft | 122 kts | 37° |
| 2026-04-26 12:07 | 43.87636 | 25.11896 | 8019 ft | 122 kts | 37° |
| 2026-04-26 12:08 | 43.88205 | 25.12767 | 8021 ft | 122 kts | 37° |
| 2026-04-26 12:08 | 43.88775 | 25.13639 | 8020 ft | 122 kts | 37° |
| 2026-04-26 12:08 | 43.89349 | 25.14519 | 8019 ft | 122 kts | 37° |
| 2026-04-26 12:08 | 43.89920 | 25.15392 | 8014 ft | 122 kts | 37° |
| 2026-04-26 12:09 | 43.90494 | 25.16270 | 8015 ft | 122 kts | 37° |
| 2026-04-26 12:09 | 43.91065 | 25.17144 | 8020 ft | 122 kts | 37° |
| 2026-04-26 12:09 | 43.91625 | 25.18004 | 8022 ft | 121 kts | 37° |
| 2026-04-26 12:09 | 43.92199 | 25.18883 | 8021 ft | 122 kts | 37° |
| 2026-04-26 12:10 | 43.92769 | 25.19756 | 8020 ft | 122 kts | 37° |
| 2026-04-26 12:10 | 43.93339 | 25.20631 | 8022 ft | 122 kts | 37° |
| 2026-04-26 12:10 | 43.93905 | 25.21500 | 8026 ft | 121 kts | 36° |
| 2026-04-26 12:10 | 43.94480 | 25.22382 | 8024 ft | 122 kts | 37° |
| 2026-04-26 12:11 | 43.95052 | 25.23258 | 8019 ft | 123 kts | 37° |
| 2026-04-26 12:11 | 43.95623 | 25.24136 | 8017 ft | 122 kts | 37° |
| 2026-04-26 12:11 | 43.96192 | 25.25010 | 8016 ft | 123 kts | 37° |
| 2026-04-26 12:11 | 43.96767 | 25.25895 | 8015 ft | 123 kts | 37° |
| 2026-04-26 12:12 | 43.97339 | 25.26773 | 8013 ft | 122 kts | 36° |
| 2026-04-26 12:12 | 43.97912 | 25.27655 | 8014 ft | 123 kts | 37° |
| 2026-04-26 12:12 | 43.98486 | 25.28537 | 8015 ft | 123 kts | 37° |
| 2026-04-26 12:12 | 43.98860 | 25.29113 | 8015 ft | 122 kts | 37° |
| 2026-04-26 12:13 | 43.99623 | 25.30288 | 8016 ft | 122 kts | 37° |
| 2026-04-26 12:13 | 44.00192 | 25.31164 | 8021 ft | 122 kts | 37° |
| 2026-04-26 12:13 | 44.00763 | 25.32042 | 8019 ft | 123 kts | 37° |
| 2026-04-26 12:13 | 44.01330 | 25.32941 | 8018 ft | 124 kts | 39° |
| 2026-04-26 12:14 | 44.01875 | 25.33859 | 8018 ft | 124 kts | 39° |
| 2026-04-26 12:14 | 44.02433 | 25.34780 | 8015 ft | 123 kts | 38° |
| 2026-04-26 12:14 | 44.02990 | 25.35684 | 8016 ft | 123 kts | 38° |
| 2026-04-26 12:14 | 44.03554 | 25.36587 | 8016 ft | 123 kts | 38° |
| 2026-04-26 12:15 | 44.04117 | 25.37476 | 8015 ft | 123 kts | 37° |
| 2026-04-26 12:15 | 44.04686 | 25.38369 | 8016 ft | 123 kts | 37° |
| 2026-04-26 12:15 | 44.05255 | 25.39260 | 8015 ft | 123 kts | 37° |
| 2026-04-26 12:15 | 44.05828 | 25.40151 | 8013 ft | 123 kts | 37° |
| 2026-04-26 12:16 | 44.06401 | 25.41042 | 8010 ft | 123 kts | 37° |
| 2026-04-26 12:16 | 44.06964 | 25.41917 | 8007 ft | 122 kts | 37° |
| 2026-04-26 12:16 | 44.07535 | 25.42802 | 8010 ft | 122 kts | 37° |
| 2026-04-26 12:16 | 44.08109 | 25.43690 | 8015 ft | 123 kts | 37° |
| 2026-04-26 12:17 | 44.08676 | 25.44570 | 8016 ft | 123 kts | 37° |
| 2026-04-26 12:17 | 44.09255 | 25.45466 | 8016 ft | 123 kts | 37° |
| 2026-04-26 12:17 | 44.09827 | 25.46352 | 8015 ft | 123 kts | 37° |
| 2026-04-26 12:17 | 44.10397 | 25.47236 | 8019 ft | 123 kts | 37° |
| 2026-04-26 12:18 | 44.10973 | 25.48127 | 8019 ft | 123 kts | 37° |
| 2026-04-26 12:18 | 44.11558 | 25.49026 | 7962 ft | 129 kts | 37° |
| 2026-04-26 12:18 | 44.12164 | 25.49970 | 7916 ft | 131 kts | 37° |
| 2026-04-26 12:18 | 44.12768 | 25.50912 | 7872 ft | 132 kts | 38° |
| 2026-04-26 12:19 | 44.13380 | 25.51864 | 7830 ft | 132 kts | 38° |
| 2026-04-26 12:19 | 44.13992 | 25.52816 | 7789 ft | 132 kts | 38° |
| 2026-04-26 12:19 | 44.14613 | 25.53783 | 7731 ft | 133 kts | 38° |
| 2026-04-26 12:19 | 44.15241 | 25.54758 | 7646 ft | 136 kts | 38° |
| 2026-04-26 12:20 | 44.15875 | 25.55746 | 7548 ft | 138 kts | 38° |
| 2026-04-26 12:20 | 44.16519 | 25.56752 | 7434 ft | 140 kts | 38° |
| 2026-04-26 12:20 | 44.17173 | 25.57771 | 7320 ft | 142 kts | 39° |
| 2026-04-26 12:20 | 44.17826 | 25.58795 | 7201 ft | 142 kts | 39° |
| 2026-04-26 12:21 | 44.18486 | 25.59840 | 7087 ft | 143 kts | 39° |
| 2026-04-26 12:21 | 44.19138 | 25.60878 | 6971 ft | 143 kts | 39° |
| 2026-04-26 12:21 | 44.19796 | 25.61926 | 6856 ft | 143 kts | 39° |
| 2026-04-26 12:21 | 44.20448 | 25.62956 | 6739 ft | 143 kts | 39° |
| 2026-04-26 12:22 | 44.21107 | 25.63991 | 6621 ft | 143 kts | 39° |
| 2026-04-26 12:22 | 44.21772 | 25.65031 | 6495 ft | 142 kts | 40° |
| 2026-04-26 12:22 | 44.22423 | 25.66052 | 6372 ft | 142 kts | 40° |
| 2026-04-26 12:22 | 44.23085 | 25.67088 | 6253 ft | 142 kts | 40° |
| 2026-04-26 12:23 | 44.23741 | 25.68117 | 6132 ft | 142 kts | 39° |
| 2026-04-26 12:23 | 44.24399 | 25.69148 | 6014 ft | 142 kts | 39° |
| 2026-04-26 12:23 | 44.25063 | 25.70187 | 5893 ft | 142 kts | 40° |
| 2026-04-26 12:23 | 44.25720 | 25.71216 | 5766 ft | 143 kts | 40° |
| 2026-04-26 12:24 | 44.26363 | 25.72274 | 5646 ft | 144 kts | 42° |
| 2026-04-26 12:24 | 44.27011 | 25.73337 | 5522 ft | 143 kts | 41° |
| 2026-04-26 12:24 | 44.27666 | 25.74389 | 5401 ft | 143 kts | 40° |
| 2026-04-26 12:25 | 44.28985 | 25.76473 | 5158 ft | 143 kts | 40° |
| 2026-04-26 12:25 | 44.29647 | 25.77514 | 5037 ft | 144 kts | 40° |
| 2026-04-26 12:25 | 44.30311 | 25.78559 | 4912 ft | 144 kts | 40° |
| 2026-04-26 12:25 | 44.30965 | 25.79614 | 4781 ft | 143 kts | 39° |
| 2026-04-26 12:26 | 44.31647 | 25.80647 | 4650 ft | 144 kts | 41° |
| 2026-04-26 12:26 | 44.32300 | 25.81695 | 4528 ft | 144 kts | 41° |
| 2026-04-26 12:26 | 44.32958 | 25.82743 | 4408 ft | 144 kts | 41° |
| 2026-04-26 12:26 | 44.33626 | 25.83801 | 4291 ft | 144 kts | 41° |
| 2026-04-26 12:27 | 44.34284 | 25.84839 | 4169 ft | 144 kts | 40° |
| 2026-04-26 12:27 | 44.34958 | 25.85902 | 4043 ft | 144 kts | 40° |
| 2026-04-26 12:27 | 44.35619 | 25.86946 | 3923 ft | 145 kts | 41° |
| 2026-04-26 12:27 | 44.36349 | 25.87884 | 3797 ft | 139 kts | 26° |
| 2026-04-26 12:28 | 44.37113 | 25.88722 | 3665 ft | 137 kts | 18° |
| 2026-04-26 12:28 | 44.37998 | 25.89112 | 3549 ft | 132 kts | 6° |
| 2026-04-26 12:28 | 44.38893 | 25.89412 | 3428 ft | 132 kts | 5° |
| 2026-04-26 12:28 | 44.39789 | 25.89708 | 3307 ft | 132 kts | 7° |
| 2026-04-26 12:29 | 44.40657 | 25.90188 | 3185 ft | 136 kts | 19° |
| 2026-04-26 12:29 | 44.41461 | 25.90868 | 3103 ft | 134 kts | 26° |
| 2026-04-26 12:29 | 44.42958 | 25.92515 | 2786 ft | 138 kts | 32° |
| 2026-04-26 12:30 | 44.43726 | 25.93307 | 2639 ft | 135 kts | 23° |
| 2026-04-26 12:30 | 44.44569 | 25.93959 | 2383 ft | 141 kts | 28° |
| 2026-04-26 12:30 | 44.45170 | 25.95059 | 2212 ft | 150 kts | 62° |
| 2026-04-26 12:31 | 44.45475 | 25.97925 | 1987 ft | 146 kts | 83° |
| 2026-04-26 12:31 | 44.45583 | 25.99328 | 1922 ft | 141 kts | 79° |
| 2026-04-26 12:31 | 44.45733 | 26.00666 | 1845 ft | 141 kts | 72° |
| 2026-04-26 12:31 | 44.46097 | 26.01914 | 1702 ft | 137 kts | 50° |
| 2026-04-26 12:32 | 44.46718 | 26.02921 | 1523 ft | 135 kts | 36° |
| 2026-04-26 12:32 | 44.47419 | 26.03755 | 1384 ft | 131 kts | 30° |
| 2026-04-26 12:32 | 44.48837 | 26.05202 | 1033 ft | 126 kts | 28° |
| 2026-04-26 12:33 | 44.49524 | 26.05974 | 870 ft | 126 kts | 39° |
| 2026-04-26 12:33 | 44.50077 | 26.06909 | 748 ft | 123 kts | 51° |
| 2026-04-26 12:33 | 44.50456 | 26.07955 | 666 ft | 118 kts | 66° |
| 2026-04-26 12:33 | 44.50713 | 26.08964 | 635 ft | 104 kts | 68° |
| 2026-04-26 12:34 | 44.50935 | 26.09881 | 609 ft | 92 kts | 65° |
| 2026-04-26 12:34 | 44.51183 | 26.10629 | 606 ft | 79 kts | 57° |
| 2026-04-26 12:34 | 44.51439 | 26.11306 | 576 ft | 77 kts | 54° |
| 2026-04-26 12:34 | 44.51666 | 26.12001 | 551 ft | 81 kts | 61° |
| 2026-04-26 12:35 | 44.51799 | 26.12738 | 551 ft | 76 kts | 108° |
| 2026-04-26 12:35 | 44.51438 | 26.13027 | 505 ft | 63 kts | 186° |
| 2026-04-26 12:35 | 44.50997 | 26.13031 | 442 ft | 54 kts | 216° |
| 2026-04-26 12:35 | 44.50809 | 26.12627 | 348 ft | 50 kts | 258° |
| 2026-04-26 12:36 | 44.50721 | 26.12168 | 296 ft | 45 kts | 251° |
| 2026-04-26 12:36 | 44.50646 | 26.11800 | 275 ft | 35 kts | 258° |
| 2026-04-26 12:36 | 44.50574 | 26.11474 | 272 ft | 35 kts | 247° |
| 2026-04-26 12:36 | 44.50511 | 26.11146 | 273 ft | 34 kts | 254° |
| 2026-04-26 12:37 | 44.50446 | 26.10826 | 279 ft | 35 kts | 256° |
| 2026-04-26 12:37 | 44.50382 | 26.10515 | 282 ft | 26 kts | 266° |
| 2026-04-26 12:37 | 44.50300 | 26.10429 | 283 ft | 12 kts | 168° |
| 2026-04-26 12:37 | 44.50205 | 26.10445 | 282 ft | 15 kts | 201° |
| 2026-04-26 12:38 | 44.50148 | 26.10319 | 282 ft | 15 kts | 251° |
| 2026-04-26 12:38 | 44.50119 | 26.10184 | 284 ft | 13 kts | 255° |
| 2026-04-26 12:38 | 44.50093 | 26.10054 | 285 ft | 14 kts | 259° |
| 2026-04-26 12:38 | 44.50071 | 26.09917 | 286 ft | 14 kts | 254° |
| 2026-04-26 12:39 | 44.50034 | 26.09764 | 288 ft | 19 kts | 256° |
| 2026-04-26 12:39 | 44.49991 | 26.09564 | 286 ft | 24 kts | 256° |
| 2026-04-26 12:39 | 44.49942 | 26.09322 | 287 ft | 25 kts | 255° |
| 2026-04-26 12:39 | 44.49902 | 26.09249 | 287 ft | 7 kts | 155° |
| 2026-04-26 12:40 | 44.49872 | 26.09244 | 288 ft | 5 kts | 194° |
| 2026-04-26 12:40 | 44.49865 | 26.09244 | 288 ft | 0 kts | 156° |